Cedar Point, KS

4:21 PM CST on February 01, 2015 (GMT -0600)
Emporia Municipal | Change Station
CLOSE
Current Station
Airport
Location: Emporia,
Elevation: 1207 ft
Nearby Weather Stations
Active Advisory: Wind Advisory Active Notice: Public Information Statement

Elev 1207 ft 38.33 °N, 96.19 °W | Updated 28 minutes ago

Snow
Snow
17 °F
Feels Like -1 °F
N
25
Wind Variable Wind from NNW
Gusts 36 mph

Today
High -- | Low -- °F
--% Chance of Precip.
Yesterday
High -- | Low -- °F
Precip. -- in
7:32 AM 5:49 PM
Waxing Gibbous, 96% visible
Pressure 30.15 in
Visibility 5.0 miles
Clouds Mostly Cloudy 2400 ft
Overcast 3000 ft
Windchill -1 °F
Dew Point 11 °F
Humidity 77%
Rainfall 0.20 in
Snow Depth Not available.
UV 0 out of 12
Pollen .10 out of 12
Air Quality Not available.
Flu Activity Not available.
METAR KEMP 012153Z AUTO 33022G31KT 5SM -SN BKN024 OVC030 M08/M12 A3010 RMK AO2 PK WND 34034/2139 SLP209 P0000 T10831117

More Conditions Fewer Conditions

Pressure 30.15 in
Visibility 5.0 miles
Clouds Mostly Cloudy 2400 ft
Overcast 3000 ft
Windchill -1 °F
Dew Point 11 °F
Humidity 77%
Rainfall 0.20 in
Snow Depth Not available.
UV 0 out of 12
Pollen .10 out of 12
Air Quality Not available.
Flu Activity Not available.
METAR KEMP 012153Z AUTO 33022G31KT 5SM -SN BKN024 OVC030 M08/M12 A3010 RMK AO2 PK WND 34034/2139 SLP209 P0000 T10831117

More Conditions Fewer Conditions

10-Day Weather Forecast

Almanac

Astronomy

Feb. 01, 2015 Rise Set
Actual Time
Civil Twilight
Nautical Twilight
Astronomical Twilight
Moon
Length of Visible Light
Length of Day
Tomorrow will be .
, % of the Moon is Illuminated

Today's Extremes

State Highs State Lows

Community

WunderPhotos

Upload Photos

1,792,568 photos uploaded!

WunderBlogs® & News

Nearby

Air Quality

  Air Quality AQ Index Pollutant
Not available.

Snow Depth

Station Depth Elevation

Earthquake Activity

City Distance Mag. Time & Date
Minimum magnitude displayed is 2.5.

Coastal Water Temperatures

Place Temperature

Nearby Weather Stations